PRIVATE WETTERSTATION BILLIGHEIM-ALLFELD                       ZURCK
Wetterdaten: Samstag, 07.01.2017
Datum Zeit Temp. A. Temp. A. min Temp. A. max Feuchte A. Luftdruck Regen Wind Richtung Richtung Sonnenschein ET Solar Taupunkt Windchill Windben Empfang
07.01.2017 00:00 -15,1 C -15,1 C -15,1 C 89 % 1040,2 hPa 0,0 l/m 0,0 km/h (0 Bft) N 0 0 min 0,000 mm 0 W/m -16,5 C -15,1 C 0,0 km/h (0 Bft) 100 %
07.01.2017 00:10 -15,2 C -15,2 C -15,1 C 89 % 1040,1 hPa 0,0 l/m 0,0 km/h (0 Bft) N 0 0 min 0,000 mm 0 W/m -16,6 C -15,2 C 0,0 km/h (0 Bft) 100 %
07.01.2017 00:20 -15,3 C -15,3 C -15,2 C 88 % 1040,2 hPa 0,0 l/m 0,0 km/h (0 Bft) N-NO 22 0 min 0,000 mm 0 W/m -16,8 C -15,3 C 1,6 km/h (1 Bft) 100 %
07.01.2017 00:30 -15,4 C -15,4 C -15,3 C 89 % 1040,1 hPa 0,0 l/m 0,0 km/h (0 Bft) N 0 0 min 0,000 mm 0 W/m -16,8 C -15,4 C 0,0 km/h (0 Bft) 100 %
07.01.2017 00:40 -15,3 C -15,4 C -15,3 C 89 % 1040,0 hPa 0,0 l/m 0,0 km/h (0 Bft) N 0 0 min 0,000 mm 0 W/m -16,7 C -15,3 C 0,0 km/h (0 Bft) 100 %
07.01.2017 00:50 -15,3 C -15,3 C -15,3 C 89 % 1039,8 hPa 0,0 l/m 0,0 km/h (0 Bft) N 0 0 min 0,000 mm 0 W/m -16,7 C -15,3 C 0,0 km/h (0 Bft) 89 %
07.01.2017 01:00 -15,4 C -15,5 C -15,3 C 88 % 1039,7 hPa 0,0 l/m 0,0 km/h (0 Bft) N 0 0 min 0,000 mm 0 W/m -16,9 C -15,4 C 0,0 km/h (0 Bft) 100 %
07.01.2017 01:10 -15,5 C -15,5 C -15,4 C 89 % 1039,6 hPa 0,0 l/m 0,0 km/h (0 Bft) N 0 0 min 0,000 mm 0 W/m -16,9 C -15,5 C 0,0 km/h (0 Bft) 100 %
07.01.2017 01:20 -15,4 C -15,5 C -15,4 C 89 % 1039,4 hPa 0,0 l/m 0,0 km/h (0 Bft) N 0 0 min 0,000 mm 0 W/m -16,8 C -15,4 C 0,0 km/h (0 Bft) 100 %
07.01.2017 01:30 -15,4 C -15,4 C -15,4 C 88 % 1039,5 hPa 0,0 l/m 0,0 km/h (0 Bft) N 0 0 min 0,000 mm 0 W/m -16,9 C -15,4 C 0,0 km/h (0 Bft) 100 %
07.01.2017 01:40 -15,7 C -15,7 C -15,4 C 88 % 1039,4 hPa 0,0 l/m 0,0 km/h (0 Bft) N 0 0 min 0,000 mm 0 W/m -17,2 C -15,7 C 0,0 km/h (0 Bft) 100 %
07.01.2017 01:50 -15,5 C -15,7 C -15,5 C 90 % 1039,1 hPa 0,0 l/m 0,0 km/h (0 Bft) N 0 0 min 0,000 mm 0 W/m -16,8 C -15,5 C 0,0 km/h (0 Bft) 100 %
07.01.2017 02:00 -15,4 C -15,5 C -15,4 C 89 % 1039,1 hPa 0,0 l/m 0,0 km/h (0 Bft) N 0 0 min 0,000 mm 0 W/m -16,8 C -15,4 C 0,0 km/h (0 Bft) 91 %
07.01.2017 02:10 -15,5 C -15,6 C -15,4 C 89 % 1039,2 hPa 0,0 l/m 0,0 km/h (0 Bft) N 0 0 min 0,000 mm 0 W/m -16,9 C -15,5 C 0,0 km/h (0 Bft) 100 %
07.01.2017 02:20 -15,7 C -15,7 C -15,5 C 88 % 1039,3 hPa 0,0 l/m 0,0 km/h (0 Bft) N 0 0 min 0,000 mm 0 W/m -17,2 C -15,7 C 0,0 km/h (0 Bft) 100 %
07.01.2017 02:30 -15,8 C -15,8 C -15,7 C 88 % 1039,4 hPa 0,0 l/m 0,0 km/h (0 Bft) N 360 0 min 0,000 mm 0 W/m -17,3 C -15,8 C 1,6 km/h (1 Bft) 100 %
07.01.2017 02:40 -15,9 C -15,9 C -15,8 C 88 % 1039,2 hPa 0,0 l/m 0,0 km/h (0 Bft) N 0 0 min 0,000 mm 0 W/m -17,4 C -15,9 C 0,0 km/h (0 Bft) 100 %
07.01.2017 02:50 -15,9 C -15,9 C -15,8 C 88 % 1038,8 hPa 0,0 l/m 0,0 km/h (0 Bft) N 0 0 min 0,000 mm 0 W/m -17,4 C -15,9 C 0,0 km/h (0 Bft) 100 %
07.01.2017 03:00 -15,8 C -15,9 C -15,8 C 89 % 1038,9 hPa 0,0 l/m 0,0 km/h (0 Bft) N 0 0 min 0,000 mm 0 W/m -17,2 C -15,8 C 0,0 km/h (0 Bft) 100 %
07.01.2017 03:10 -15,8 C -15,8 C -15,8 C 88 % 1039,0 hPa 0,0 l/m 0,0 km/h (0 Bft) N 0 0 min 0,000 mm 0 W/m -17,3 C -15,8 C 0,0 km/h (0 Bft) 91 %
07.01.2017 03:20 -15,9 C -15,9 C -15,8 C 88 % 1039,0 hPa 0,0 l/m 0,0 km/h (0 Bft) N 0 0 min 0,000 mm 0 W/m -17,4 C -15,9 C 0,0 km/h (0 Bft) 100 %
07.01.2017 03:30 -15,9 C -15,9 C -15,9 C 88 % 1038,9 hPa 0,0 l/m 0,0 km/h (0 Bft) N 0 0 min 0,000 mm 0 W/m -17,4 C -15,9 C 0,0 km/h (0 Bft) 100 %
07.01.2017 03:40 -15,9 C -15,9 C -15,9 C 88 % 1038,8 hPa 0,0 l/m 0,0 km/h (0 Bft) N 0 0 min 0,000 mm 0 W/m -17,4 C -15,9 C 0,0 km/h (0 Bft) 100 %
07.01.2017 03:50 -15,7 C -15,9 C -15,7 C 90 % 1038,6 hPa 0,0 l/m 0,0 km/h (0 Bft) N 0 0 min 0,000 mm 0 W/m -17,0 C -15,7 C 0,0 km/h (0 Bft) 90 %
07.01.2017 04:00 -15,6 C -15,7 C -15,6 C 89 % 1038,7 hPa 0,0 l/m 0,0 km/h (0 Bft) N 0 0 min 0,000 mm 0 W/m -17,0 C -15,6 C 0,0 km/h (0 Bft) 100 %
07.01.2017 04:10 -15,7 C -15,7 C -15,6 C 89 % 1038,7 hPa 0,0 l/m 0,0 km/h (0 Bft) N 0 0 min 0,000 mm 0 W/m -17,1 C -15,7 C 0,0 km/h (0 Bft) 100 %
07.01.2017 04:20 -15,7 C -15,7 C -15,7 C 88 % 1038,7 hPa 0,0 l/m 0,0 km/h (0 Bft) N 0 0 min 0,000 mm 0 W/m -17,2 C -15,7 C 0,0 km/h (0 Bft) 91 %
07.01.2017 04:30 -15,6 C -15,7 C -15,6 C 89 % 1038,7 hPa 0,0 l/m 0,0 km/h (0 Bft) N 0 0 min 0,000 mm 0 W/m -17,0 C -15,6 C 0,0 km/h (0 Bft) 100 %
07.01.2017 04:40 -15,4 C -15,6 C -15,4 C 89 % 1038,7 hPa 0,0 l/m 0,0 km/h (0 Bft) N 0 0 min 0,000 mm 0 W/m -16,8 C -15,4 C 0,0 km/h (0 Bft) 100 %
07.01.2017 04:50 -15,2 C -15,4 C -15,2 C 89 % 1038,6 hPa 0,0 l/m 0,0 km/h (0 Bft) N 0 0 min 0,000 mm 0 W/m -16,6 C -15,2 C 0,0 km/h (0 Bft) 100 %
07.01.2017 05:00 -15,1 C -15,2 C -15,1 C 90 % 1038,6 hPa 0,0 l/m 0,0 km/h (0 Bft) N 0 0 min 0,000 mm 0 W/m -16,4 C -15,1 C 0,0 km/h (0 Bft) 100 %
07.01.2017 05:10 -14,9 C -15,1 C -14,9 C 90 % 1038,6 hPa 0,0 l/m 0,0 km/h (0 Bft) N 0 0 min 0,000 mm 0 W/m -16,2 C -14,9 C 0,0 km/h (0 Bft) 100 %
07.01.2017 05:20 -14,7 C -14,9 C -14,7 C 90 % 1038,5 hPa 0,0 l/m 0,0 km/h (0 Bft) N 0 0 min 0,000 mm 0 W/m -16,0 C -14,7 C 0,0 km/h (0 Bft) 100 %
07.01.2017 05:30 -14,5 C -14,7 C -14,4 C 90 % 1038,4 hPa 0,0 l/m 0,0 km/h (0 Bft) N 0 0 min 0,000 mm 0 W/m -15,8 C -14,5 C 0,0 km/h (0 Bft) 100 %
07.01.2017 05:40 -14,3 C -14,5 C -14,3 C 90 % 1038,1 hPa 0,0 l/m 0,0 km/h (0 Bft) N 0 0 min 0,000 mm 0 W/m -15,6 C -14,3 C 0,0 km/h (0 Bft) 98 %
07.01.2017 05:50 -14,1 C -14,3 C -14,1 C 90 % 1038,0 hPa 0,0 l/m 0,0 km/h (0 Bft) N 0 0 min 0,000 mm 0 W/m -15,4 C -14,1 C 0,0 km/h (0 Bft) 97 %
07.01.2017 06:00 -13,9 C -14,1 C -13,9 C 90 % 1038,1 hPa 0,0 l/m 0,0 km/h (0 Bft) N 360 0 min 0,000 mm 0 W/m -15,2 C -13,9 C 1,6 km/h (1 Bft) 97 %
07.01.2017 06:10 -13,9 C -13,9 C -13,9 C 90 % 1037,7 hPa 0,0 l/m 0,0 km/h (0 Bft) N 0 0 min 0,000 mm 0 W/m -15,2 C -13,9 C 0,0 km/h (0 Bft) 98 %
07.01.2017 06:20 -13,7 C -13,9 C -13,7 C 90 % 1038,0 hPa 0,0 l/m 0,0 km/h (0 Bft) N 0 0 min 0,000 mm 0 W/m -15,0 C -13,7 C 0,0 km/h (0 Bft) 89 %
07.01.2017 06:30 -13,6 C -13,7 C -13,6 C 90 % 1037,9 hPa 0,0 l/m 0,0 km/h (0 Bft) N 0 0 min 0,000 mm 0 W/m -14,9 C -13,6 C 0,0 km/h (0 Bft) 97 %
07.01.2017 06:40 -13,4 C -13,6 C -13,4 C 90 % 1037,6 hPa 0,0 l/m 0,0 km/h (0 Bft) N 0 0 min 0,000 mm 0 W/m -14,7 C -13,4 C 0,0 km/h (0 Bft) 98 %
07.01.2017 06:50 -13,2 C -13,4 C -13,2 C 90 % 1037,8 hPa 0,0 l/m 0,0 km/h (0 Bft) N 0 0 min 0,000 mm 0 W/m -14,5 C -13,2 C 0,0 km/h (0 Bft) 97 %
07.01.2017 07:00 -13,0 C -13,2 C -13,0 C 90 % 1037,7 hPa 0,0 l/m 0,0 km/h (0 Bft) N 0 0 min 0,000 mm 0 W/m -14,3 C -13,0 C 0,0 km/h (0 Bft) 98 %
07.01.2017 07:10 -12,8 C -13,1 C -12,8 C 90 % 1037,8 hPa 0,0 l/m 0,0 km/h (0 Bft) N 0 0 min 0,000 mm 0 W/m -14,1 C -12,8 C 0,0 km/h (0 Bft) 97 %
07.01.2017 07:20 -12,7 C -12,8 C -12,7 C 90 % 1037,3 hPa 0,0 l/m 0,0 km/h (0 Bft) N 0 0 min 0,000 mm 0 W/m -14,0 C -12,7 C 0,0 km/h (0 Bft) 98 %
07.01.2017 07:30 -12,4 C -12,6 C -12,4 C 91 % 1037,6 hPa 0,0 l/m 0,0 km/h (0 Bft) N 0 0 min 0,000 mm 0 W/m -13,6 C -12,4 C 0,0 km/h (0 Bft) 98 %
07.01.2017 07:40 -12,2 C -12,4 C -12,2 C 91 % 1037,6 hPa 0,0 l/m 0,0 km/h (0 Bft) N 0 0 min 0,000 mm 0 W/m -13,4 C -12,2 C 0,0 km/h (0 Bft) 89 %
07.01.2017 07:50 -12,1 C -12,2 C -12,1 C 91 % 1037,7 hPa 0,0 l/m 0,0 km/h (0 Bft) N 0 0 min 0,000 mm 0 W/m -13,3 C -12,1 C 0,0 km/h (0 Bft) 97 %
07.01.2017 08:00 -11,9 C -12,1 C -11,9 C 91 % 1037,5 hPa 0,0 l/m 0,0 km/h (0 Bft) N 0 0 min 0,000 mm 0 W/m -13,1 C -11,9 C 0,0 km/h (0 Bft) 97 %
07.01.2017 08:10 -11,7 C -11,9 C -11,7 C 91 % 1037,1 hPa 0,0 l/m 0,0 km/h (0 Bft) N 0 0 min 0,000 mm 0 W/m -12,9 C -11,7 C 0,0 km/h (0 Bft) 98 %
07.01.2017 08:20 -11,5 C -11,7 C -11,5 C 91 % 1037,5 hPa 0,0 l/m 0,0 km/h (0 Bft) N 0 0 min 0,000 mm 0 W/m -12,7 C -11,5 C 0,0 km/h (0 Bft) 97 %
07.01.2017 08:30 -11,4 C -11,5 C -11,4 C 91 % 1037,3 hPa 0,0 l/m 0,0 km/h (0 Bft) N 0 0 min 0,000 mm 14 W/m -12,6 C -11,4 C 0,0 km/h (0 Bft) 89 %
07.01.2017 08:40 -11,3 C -11,4 C -11,3 C 90 % 1037,1 hPa 0,0 l/m 0,0 km/h (0 Bft) N 0 0 min 0,000 mm 25 W/m -12,6 C -11,3 C 0,0 km/h (0 Bft) 98 %
07.01.2017 08:50 -11,2 C -11,3 C -11,2 C 91 % 1037,2 hPa 0,0 l/m 0,0 km/h (0 Bft) N 0 0 min 0,000 mm 30 W/m -12,4 C -11,2 C 0,0 km/h (0 Bft) 98 %
07.01.2017 09:00 -11,1 C -11,2 C -11,0 C 90 % 1037,2 hPa 0,0 l/m 0,0 km/h (0 Bft) N 0 0 min 0,000 mm 23 W/m -12,4 C -11,1 C 0,0 km/h (0 Bft) 98 %
07.01.2017 09:10 -10,9 C -11,1 C -10,9 C 90 % 1037,1 hPa 0,0 l/m 0,0 km/h (0 Bft) N 0 0 min 0,000 mm 28 W/m -12,2 C -10,9 C 0,0 km/h (0 Bft) 97 %
07.01.2017 09:20 -10,8 C -10,9 C -10,8 C 90 % 1037,0 hPa 0,0 l/m 0,0 km/h (0 Bft) N 0 0 min 0,000 mm 44 W/m -12,1 C -10,8 C 0,0 km/h (0 Bft) 98 %
07.01.2017 09:30 -10,7 C -10,8 C -10,7 C 90 % 1037,0 hPa 0,0 l/m 0,0 km/h (0 Bft) N 0 0 min 0,000 mm 51 W/m -12,0 C -10,7 C 0,0 km/h (0 Bft) 97 %
07.01.2017 09:40 -10,6 C -10,7 C -10,6 C 90 % 1037,1 hPa 0,0 l/m 0,0 km/h (0 Bft) N 0 0 min 0,000 mm 62 W/m -11,9 C -10,6 C 0,0 km/h (0 Bft) 97 %
07.01.2017 09:50 -10,4 C -10,6 C -10,4 C 90 % 1037,1 hPa 0,0 l/m 0,0 km/h (0 Bft) N 0 0 min 0,000 mm 72 W/m -11,7 C -10,4 C 0,0 km/h (0 Bft) 98 %
07.01.2017 10:00 -10,2 C -10,4 C -10,2 C 90 % 1037,1 hPa 0,0 l/m 0,0 km/h (0 Bft) N 0 10 min 0,000 mm 169 W/m -11,5 C -10,2 C 0,0 km/h (0 Bft) 98 %
07.01.2017 10:10 -9,9 C -10,2 C -9,9 C 90 % 1036,9 hPa 0,0 l/m 0,0 km/h (0 Bft) N 0 10 min 0,000 mm 179 W/m -11,2 C -9,9 C 0,0 km/h (0 Bft) 98 %
07.01.2017 10:20 -9,7 C -9,9 C -9,7 C 89 % 1036,8 hPa 0,0 l/m 0,0 km/h (0 Bft) N 0 0 min 0,000 mm 113 W/m -11,2 C -9,7 C 0,0 km/h (0 Bft) 98 %
07.01.2017 10:30 -9,3 C -9,6 C -9,3 C 89 % 1037,0 hPa 0,0 l/m 0,0 km/h (0 Bft) N 0 0 min 0,000 mm 113 W/m -10,8 C -9,3 C 0,0 km/h (0 Bft) 98 %
07.01.2017 10:40 -8,9 C -9,3 C -8,9 C 89 % 1037,0 hPa 0,0 l/m 0,0 km/h (0 Bft) N 0 0 min 0,000 mm 120 W/m -10,4 C -8,9 C 0,0 km/h (0 Bft) 97 %
07.01.2017 10:50 -8,6 C -8,9 C -8,6 C 88 % 1036,9 hPa 0,0 l/m 0,0 km/h (0 Bft) N 0 0 min 0,000 mm 97 W/m -10,2 C -8,6 C 0,0 km/h (0 Bft) 98 %
07.01.2017 11:00 -8,2 C -8,6 C -8,2 C 88 % 1036,8 hPa 0,0 l/m 0,0 km/h (0 Bft) N 0 10 min 0,025 mm 218 W/m -9,8 C -8,2 C 0,0 km/h (0 Bft) 98 %
07.01.2017 11:10 -7,7 C -8,2 C -7,7 C 85 % 1036,7 hPa 0,0 l/m 0,0 km/h (0 Bft) N 0 10 min 0,000 mm 229 W/m -9,8 C -7,7 C 0,0 km/h (0 Bft) 98 %
07.01.2017 11:20 -7,3 C -7,7 C -7,3 C 84 % 1036,8 hPa 0,0 l/m 0,0 km/h (0 Bft) N 360 10 min 0,000 mm 202 W/m -9,5 C -7,3 C 4,8 km/h (1 Bft) 98 %
07.01.2017 11:30 -7,3 C -7,3 C -7,2 C 82 % 1036,7 hPa 0,0 l/m 0,0 km/h (0 Bft) NW 315 0 min 0,000 mm 142 W/m -9,8 C -7,3 C 4,8 km/h (1 Bft) 98 %
07.01.2017 11:40 -7,4 C -7,4 C -7,3 C 81 % 1036,7 hPa 0,0 l/m 1,6 km/h (1 Bft) NW 315 0 min 0,000 mm 151 W/m -10,1 C -7,4 C 6,4 km/h (2 Bft) 98 %
07.01.2017 11:50 -7,6 C -7,6 C -7,4 C 81 % 1036,3 hPa 0,0 l/m 1,6 km/h (1 Bft) SW 225 0 min 0,000 mm 146 W/m -10,3 C -7,6 C 4,8 km/h (1 Bft) 97 %
07.01.2017 12:00 -7,4 C -7,6 C -7,4 C 82 % 1036,3 hPa 0,0 l/m 1,6 km/h (1 Bft) SW 225 10 min 0,051 mm 176 W/m -9,9 C -7,4 C 6,4 km/h (2 Bft) 98 %
07.01.2017 12:10 -7,3 C -7,4 C -7,2 C 81 % 1036,1 hPa 0,0 l/m 0,0 km/h (0 Bft) S-SW 202 10 min 0,000 mm 190 W/m -10,0 C -7,3 C 8,0 km/h (2 Bft) 97 %
07.01.2017 12:20 -7,2 C -7,3 C -7,2 C 80 % 1035,8 hPa 0,0 l/m 1,6 km/h (1 Bft) S-SW 202 10 min 0,000 mm 174 W/m -10,0 C -7,2 C 6,4 km/h (2 Bft) 98 %
07.01.2017 12:30 -7,2 C -7,2 C -7,2 C 81 % 1035,4 hPa 0,0 l/m 1,6 km/h (1 Bft) S 180 10 min 0,000 mm 163 W/m -9,9 C -7,2 C 8,0 km/h (2 Bft) 98 %
07.01.2017 12:40 -7,2 C -7,2 C -7,2 C 81 % 1035,3 hPa 0,0 l/m 1,6 km/h (1 Bft) S-SW 202 0 min 0,000 mm 149 W/m -9,9 C -7,2 C 6,4 km/h (2 Bft) 98 %
07.01.2017 12:50 -6,8 C -7,2 C -6,8 C 80 % 1035,2 hPa 0,0 l/m 1,6 km/h (1 Bft) S-SW 202 10 min 0,000 mm 178 W/m -9,7 C -6,8 C 6,4 km/h (2 Bft) 98 %
07.01.2017 13:00 -6,7 C -6,8 C -6,7 C 79 % 1035,2 hPa 0,0 l/m 1,6 km/h (1 Bft) SW 225 10 min 0,051 mm 179 W/m -9,7 C -6,7 C 6,4 km/h (2 Bft) 98 %
07.01.2017 13:10 -6,6 C -6,7 C -6,6 C 79 % 1035,1 hPa 0,0 l/m 0,0 km/h (0 Bft) S-SW 202 10 min 0,000 mm 156 W/m -9,6 C -6,6 C 4,8 km/h (1 Bft) 98 %
07.01.2017 13:20 -6,6 C -6,6 C -6,6 C 79 % 1035,0 hPa 0,0 l/m 0,0 km/h (0 Bft) S-SW 202 0 min 0,000 mm 144 W/m -9,6 C -6,6 C 3,2 km/h (1 Bft) 98 %
07.01.2017 13:30 -6,4 C -6,6 C -6,4 C 81 % 1034,9 hPa 0,0 l/m 0,0 km/h (0 Bft) S-SW 202 0 min 0,000 mm 132 W/m -9,1 C -6,4 C 4,8 km/h (1 Bft) 98 %
07.01.2017 13:40 -6,1 C -6,4 C -6,1 C 80 % 1034,8 hPa 0,0 l/m 1,6 km/h (1 Bft) S-SW 202 0 min 0,000 mm 125 W/m -9,0 C -6,1 C 8,0 km/h (2 Bft) 98 %
07.01.2017 13:50 -6,0 C -6,1 C -6,0 C 80 % 1034,7 hPa 0,0 l/m 1,6 km/h (1 Bft) SW 225 0 min 0,000 mm 98 W/m -8,9 C -6,0 C 6,4 km/h (2 Bft) 98 %
07.01.2017 14:00 -5,9 C -6,0 C -5,9 C 79 % 1034,4 hPa 0,0 l/m 0,0 km/h (0 Bft) SW 225 0 min 0,025 mm 84 W/m -8,9 C -5,9 C 6,4 km/h (2 Bft) 88 %
07.01.2017 14:10 -6,0 C -6,0 C -5,9 C 79 % 1034,2 hPa 0,0 l/m 1,6 km/h (1 Bft) SW 225 0 min 0,000 mm 100 W/m -9,0 C -6,0 C 4,8 km/h (1 Bft) 98 %
07.01.2017 14:20 -6,0 C -6,0 C -5,9 C 79 % 1034,2 hPa 0,0 l/m 0,0 km/h (0 Bft) N 0 0 min 0,000 mm 104 W/m -9,0 C -6,0 C 0,0 km/h (0 Bft) 97 %
07.01.2017 14:30 -5,9 C -6,0 C -5,9 C 80 % 1034,0 hPa 0,0 l/m 0,0 km/h (0 Bft) SW 225 0 min 0,000 mm 102 W/m -8,8 C -5,9 C 1,6 km/h (1 Bft) 97 %
07.01.2017 14:40 -5,9 C -6,0 C -5,9 C 79 % 1034,0 hPa 0,0 l/m 0,0 km/h (0 Bft) N 0 0 min 0,000 mm 93 W/m -8,9 C -5,9 C 0,0 km/h (0 Bft) 98 %
07.01.2017 14:50 -5,9 C -5,9 C -5,9 C 80 % 1034,0 hPa 0,0 l/m 0,0 km/h (0 Bft) SW 225 0 min 0,000 mm 84 W/m -8,8 C -5,9 C 4,8 km/h (1 Bft) 98 %
07.01.2017 15:00 -5,8 C -5,9 C -5,7 C 79 % 1034,0 hPa 0,0 l/m 0,0 km/h (0 Bft) SW 225 0 min 0,025 mm 77 W/m -8,8 C -5,8 C 3,2 km/h (1 Bft) 97 %
07.01.2017 15:10 -5,7 C -5,7 C -5,7 C 78 % 1033,8 hPa 0,0 l/m 1,6 km/h (1 Bft) SW 225 0 min 0,000 mm 79 W/m -8,9 C -5,7 C 6,4 km/h (2 Bft) 97 %
07.01.2017 15:20 -5,7 C -5,7 C -5,6 C 79 % 1033,8 hPa 0,0 l/m 0,0 km/h (0 Bft) SW 225 0 min 0,000 mm 58 W/m -8,7 C -5,7 C 4,8 km/h (1 Bft) 97 %
07.01.2017 15:30 -5,6 C -5,7 C -5,6 C 79 % 1033,8 hPa 0,0 l/m 2,8 km/h (1 Bft) SW 215 0 min 0,001 mm 49 W/m -8,6 C -5,6 C 4,8 km/h (1 Bft) 97 %
07.01.2017 15:40 -5,5 C -5,6 C -5,5 C 79 % 1033,8 hPa 0,0 l/m 0,3 km/h (0 Bft) SW 215 0 min 0,000 mm 32 W/m -8,5 C -5,5 C 3,2 km/h (1 Bft) 100 %
07.01.2017 15:50 -5,4 C -5,5 C -5,4 C 79 % 1033,7 hPa 0,0 l/m 0,5 km/h (0 Bft) SW 215 0 min 0,000 mm 28 W/m -8,5 C -5,4 C 4,8 km/h (1 Bft) 100 %
07.01.2017 16:00 -5,6 C -5,6 C -5,4 C 77 % 1033,5 hPa 0,0 l/m 0,6 km/h (0 Bft) S-SW 198 0 min 0,025 mm 28 W/m -9,0 C -5,6 C 6,4 km/h (2 Bft) 99 %
07.01.2017 16:10 -5,6 C -5,6 C -5,6 C 78 % 1033,4 hPa 0,0 l/m 1,3 km/h (1 Bft) S-SW 200 0 min 0,000 mm 18 W/m -8,8 C -5,6 C 6,4 km/h (2 Bft) 91 %
07.01.2017 16:20 -5,6 C -5,6 C -5,6 C 78 % 1033,4 hPa 0,0 l/m 2,3 km/h (1 Bft) S-SW 196 0 min 0,000 mm 11 W/m -8,8 C -5,6 C 6,4 km/h (2 Bft) 100 %
07.01.2017 16:30 -5,7 C -5,7 C -5,6 C 78 % 1033,4 hPa 0,0 l/m 1,1 km/h (1 Bft) S-SW 202 0 min 0,000 mm 0 W/m -8,9 C -5,7 C 8,0 km/h (2 Bft) 98 %
07.01.2017 16:40 -5,7 C -5,7 C -5,7 C 79 % 1033,4 hPa 0,0 l/m 0,8 km/h (0 Bft) S-SW 197 0 min 0,000 mm 0 W/m -8,7 C -5,7 C 6,4 km/h (2 Bft) 100 %
07.01.2017 16:50 -5,7 C -5,7 C -5,7 C 78 % 1033,3 hPa 0,0 l/m 2,3 km/h (1 Bft) S-SW 204 0 min 0,000 mm 0 W/m -8,9 C -5,7 C 8,0 km/h (2 Bft) 99 %
07.01.2017 17:00 -5,7 C -5,7 C -5,7 C 77 % 1033,2 hPa 0,0 l/m 3,0 km/h (1 Bft) S-SW 196 0 min 0,000 mm 0 W/m -9,1 C -5,7 C 9,7 km/h (2 Bft) 100 %
07.01.2017 17:10 -5,6 C -5,7 C -5,6 C 77 % 1033,2 hPa 0,0 l/m 3,0 km/h (1 Bft) S-SW 208 0 min 0,000 mm 0 W/m -9,0 C -5,6 C 9,7 km/h (2 Bft) 99 %
07.01.2017 17:20 -5,6 C -5,6 C -5,6 C 78 % 1033,1 hPa 0,0 l/m 0,0 km/h (0 Bft) S-SW 202 0 min 0,000 mm 0 W/m -8,8 C -5,6 C 0,0 km/h (0 Bft) 99 %
07.01.2017 17:30 -5,5 C -5,6 C -5,5 C 79 % 1033,0 hPa 0,0 l/m 0,8 km/h (0 Bft) S-SW 193 0 min 0,000 mm 0 W/m -8,5 C -5,5 C 6,4 km/h (2 Bft) 99 %
07.01.2017 17:40 -5,5 C -5,5 C -5,4 C 79 % 1033,0 hPa 0,0 l/m 1,9 km/h (1 Bft) S-SW 209 0 min 0,000 mm 0 W/m -8,5 C -5,5 C 6,4 km/h (2 Bft) 99 %
07.01.2017 17:50 -5,4 C -5,5 C -5,4 C 79 % 1032,9 hPa 0,0 l/m 2,9 km/h (1 Bft) SW 219 0 min 0,000 mm 0 W/m -8,5 C -5,4 C 9,7 km/h (2 Bft) 99 %
07.01.2017 18:00 -5,3 C -5,4 C -5,3 C 78 % 1032,9 hPa 0,0 l/m 3,3 km/h (1 Bft) SW 217 0 min 0,000 mm 0 W/m -8,5 C -5,3 C 11,3 km/h (2 Bft) 100 %
07.01.2017 18:10 -5,2 C -5,3 C -5,2 C 78 % 1032,9 hPa 0,0 l/m 4,7 km/h (1 Bft) S-SW 204 0 min 0,000 mm 0 W/m -8,4 C -5,2 C 9,7 km/h (2 Bft) 90 %
07.01.2017 18:20 -5,2 C -5,3 C -5,2 C 78 % 1032,8 hPa 0,0 l/m 6,0 km/h (2 Bft) S-SW 213 0 min 0,000 mm 0 W/m -8,4 C -5,2 C 17,7 km/h (3 Bft) 98 %
07.01.2017 18:30 -5,1 C -5,2 C -5,1 C 78 % 1033,0 hPa 0,0 l/m 4,8 km/h (1 Bft) SW 233 0 min 0,000 mm 0 W/m -8,3 C -5,1 C 11,3 km/h (2 Bft) 100 %
07.01.2017 18:40 -4,9 C -5,1 C -4,9 C 78 % 1032,8 hPa 0,0 l/m 4,0 km/h (1 Bft) SW 216 0 min 0,000 mm 0 W/m -8,1 C -4,9 C 9,7 km/h (2 Bft) 91 %
07.01.2017 18:50 -4,9 C -4,9 C -4,9 C 79 % 1032,7 hPa 0,0 l/m 2,8 km/h (1 Bft) SW 218 0 min 0,000 mm 0 W/m -8,0 C -4,9 C 11,3 km/h (2 Bft) 100 %
07.01.2017 19:00 -5,0 C -5,0 C -4,9 C 80 % 1032,6 hPa 0,0 l/m 6,8 km/h (2 Bft) S-SW 202 0 min 0,000 mm 0 W/m -7,9 C -5,5 C 16,1 km/h (3 Bft) 99 %
07.01.2017 19:10 -5,2 C -5,2 C -5,0 C 82 % 1032,5 hPa 0,0 l/m 4,5 km/h (1 Bft) S-SW 209 0 min 0,000 mm 0 W/m -7,8 C -5,2 C 17,7 km/h (3 Bft) 91 %
07.01.2017 19:20 -5,3 C -5,3 C -5,2 C 84 % 1032,3 hPa 0,0 l/m 6,2 km/h (2 Bft) S-SW 203 0 min 0,000 mm 0 W/m -7,6 C -5,3 C 14,5 km/h (3 Bft) 100 %
07.01.2017 19:30 -5,4 C -5,4 C -5,3 C 85 % 1032,2 hPa 0,0 l/m 6,0 km/h (2 Bft) S-SW 210 0 min 0,000 mm 0 W/m -7,5 C -5,4 C 16,1 km/h (3 Bft) 100 %
07.01.2017 19:40 -5,6 C -5,6 C -5,4 C 87 % 1032,1 hPa 0,0 l/m 5,6 km/h (1 Bft) S-SW 208 0 min 0,000 mm 0 W/m -7,4 C -5,6 C 11,3 km/h (2 Bft) 99 %
07.01.2017 19:50 -5,6 C -5,6 C -5,6 C 88 % 1032,2 hPa 0,0 l/m 5,6 km/h (1 Bft) S-SW 213 0 min 0,000 mm 0 W/m -7,3 C -5,6 C 9,7 km/h (2 Bft) 99 %
07.01.2017 20:00 -5,6 C -5,6 C -5,6 C 89 % 1032,2 hPa 0,0 l/m 6,5 km/h (2 Bft) SW 217 0 min 0,000 mm 0 W/m -7,1 C -5,7 C 11,3 km/h (2 Bft) 99 %
07.01.2017 20:10 -5,6 C -5,6 C -5,6 C 89 % 1032,1 hPa 0,0 l/m 6,2 km/h (2 Bft) S-SW 211 0 min 0,000 mm 0 W/m -7,1 C -5,6 C 16,1 km/h (3 Bft) 99 %
07.01.2017 20:20 -5,5 C -5,6 C -5,5 C 89 % 1032,0 hPa 0,0 l/m 6,1 km/h (2 Bft) S-SW 203 0 min 0,000 mm 0 W/m -7,0 C -5,5 C 11,3 km/h (2 Bft) 99 %
07.01.2017 20:30 -5,5 C -5,5 C -5,5 C 90 % 1031,9 hPa 0,0 l/m 7,5 km/h (2 Bft) SW 214 0 min 0,000 mm 0 W/m -6,9 C -6,8 C 17,7 km/h (3 Bft) 99 %
07.01.2017 20:40 -5,5 C -5,5 C -5,5 C 90 % 1031,8 hPa 0,0 l/m 4,5 km/h (1 Bft) SW 218 0 min 0,000 mm 0 W/m -6,9 C -5,5 C 11,3 km/h (2 Bft) 99 %
07.01.2017 20:50 -5,5 C -5,6 C -5,5 C 91 % 1031,8 hPa 0,0 l/m 5,0 km/h (1 Bft) SW 236 0 min 0,000 mm 0 W/m -6,7 C -5,5 C 11,3 km/h (2 Bft) 98 %
07.01.2017 21:00 -5,4 C -5,5 C -5,4 C 91 % 1031,9 hPa 0,0 l/m 6,1 km/h (2 Bft) SW 230 0 min 0,000 mm 0 W/m -6,6 C -5,4 C 16,1 km/h (3 Bft) 100 %
07.01.2017 21:10 -5,4 C -5,5 C -5,4 C 91 % 1032,0 hPa 0,0 l/m 4,8 km/h (1 Bft) SW 225 0 min 0,000 mm 0 W/m -6,6 C -5,4 C 11,3 km/h (2 Bft) 90 %
07.01.2017 21:20 -5,3 C -5,4 C -5,3 C 91 % 1031,9 hPa 0,0 l/m 1,6 km/h (1 Bft) SW 225 0 min 0,000 mm 0 W/m -6,5 C -5,3 C 9,7 km/h (2 Bft) 97 %
07.01.2017 21:30 -5,2 C -5,3 C -5,2 C 91 % 1031,8 hPa 0,0 l/m 4,8 km/h (1 Bft) SW 225 0 min 0,000 mm 0 W/m -6,4 C -5,2 C 14,5 km/h (3 Bft) 98 %
07.01.2017 21:40 -5,2 C -5,2 C -5,2 C 91 % 1031,7 hPa 0,0 l/m 6,4 km/h (2 Bft) W-SW 247 0 min 0,000 mm 0 W/m -6,4 C -5,1 C 16,1 km/h (3 Bft) 97 %
07.01.2017 21:50 -5,1 C -5,2 C -5,1 C 91 % 1031,5 hPa 0,0 l/m 3,2 km/h (1 Bft) W-SW 247 0 min 0,000 mm 0 W/m -6,3 C -5,1 C 16,1 km/h (3 Bft) 97 %
07.01.2017 22:00 -5,1 C -5,1 C -5,1 C 91 % 1031,5 hPa 0,0 l/m 4,8 km/h (1 Bft) W-SW 247 0 min 0,000 mm 0 W/m -6,3 C -5,1 C 17,7 km/h (3 Bft) 98 %
07.01.2017 22:10 -5,1 C -5,1 C -5,1 C 91 % 1031,6 hPa 0,0 l/m 3,2 km/h (1 Bft) W-SW 247 0 min 0,000 mm 0 W/m -6,3 C -5,1 C 9,7 km/h (2 Bft) 88 %
07.01.2017 22:20 -5,2 C -5,2 C -5,1 C 91 % 1031,6 hPa 0,0 l/m 6,4 km/h (2 Bft) W-SW 247 0 min 0,000 mm 0 W/m -6,4 C -5,1 C 19,3 km/h (3 Bft) 98 %
07.01.2017 22:30 -5,2 C -5,2 C -5,2 C 91 % 1031,6 hPa 0,0 l/m 1,6 km/h (1 Bft) W-NW 292 0 min 0,000 mm 0 W/m -6,4 C -5,2 C 9,7 km/h (2 Bft) 97 %
07.01.2017 22:40 -5,2 C -5,2 C -5,2 C 91 % 1031,6 hPa 0,0 l/m 1,6 km/h (1 Bft) W-SW 247 0 min 0,000 mm 0 W/m -6,4 C -5,2 C 8,0 km/h (2 Bft) 98 %
07.01.2017 22:50 -5,1 C -5,2 C -5,1 C 92 % 1031,4 hPa 0,0 l/m 4,8 km/h (1 Bft) W-SW 247 0 min 0,000 mm 0 W/m -6,2 C -5,1 C 14,5 km/h (3 Bft) 97 %
07.01.2017 23:00 -5,0 C -5,1 C -5,0 C 92 % 1031,4 hPa 0,0 l/m 4,8 km/h (1 Bft) SW 225 0 min 0,000 mm 0 W/m -6,1 C -5,0 C 17,7 km/h (3 Bft) 98 %
07.01.2017 23:10 -4,9 C -5,1 C -4,9 C 92 % 1031,4 hPa 0,0 l/m 4,8 km/h (1 Bft) W-SW 247 0 min 0,000 mm 0 W/m -6,0 C -4,9 C 11,3 km/h (2 Bft) 98 %
07.01.2017 23:20 -4,8 C -4,9 C -4,8 C 92 % 1031,2 hPa 0,0 l/m 4,8 km/h (1 Bft) SW 225 0 min 0,000 mm 0 W/m -5,9 C -4,8 C 19,3 km/h (3 Bft) 97 %
07.01.2017 23:30 -4,8 C -4,8 C -4,7 C 92 % 1031,2 hPa 0,0 l/m 4,8 km/h (1 Bft) W-SW 247 0 min 0,000 mm 0 W/m -5,9 C -4,8 C 16,1 km/h (3 Bft) 98 %
07.01.2017 23:40 -4,7 C -4,7 C -4,7 C 92 % 1031,0 hPa 0,0 l/m 4,8 km/h (1 Bft) W-SW 247 0 min 0,000 mm 0 W/m -5,8 C -4,7 C 14,5 km/h (3 Bft) 97 %
07.01.2017 23:50 -4,7 C -4,7 C -4,7 C 92 % 1031,0 hPa 0,0 l/m 4,8 km/h (1 Bft) W-SW 247 0 min 0,000 mm 0 W/m -5,8 C -4,7 C 17,7 km/h (3 Bft) 97 %
_ Min-Zeit 02:40 02:40 03:30 16:00 23:40 - 00:00 - - - - - 02:40 02:40 00:00 14:00
Minimum _ -15,9 C -15,9 C -15,9 C 77 % 1031,0 hPa - 0,0 km/h (0 Bft) - - - - - -17,4 C -15,9 C 0,0 km/h (0 Bft) 88 %
_ Max-Zeit 23:30 23:40 23:30 22:50 00:00 00:00 20:30 - - 10:00 12:00 11:10 23:40 23:40 22:20 00:30
Maximum _ -4,7 C -4,7 C -4,7 C 92 % 1040,2 hPa 0,0 l/m 7,5 km/h
SW (2 Bft)
- - 10 min 0,051 mm 229 W/m -5,8 C -4,7 C 19,3 km/h
W (3 Bft)
100 %
Durchschnitt _ -9,4 C -9,5 C -9,4 C 86 % 1035,6 hPa #0,0 l/m 1,5 km/h (1 Bft) SW - #2:00 h #0,203 mm 105 W/m -11,3 C -9,4 C 5,0 km/h (1 Bft) 98 %
PRIVATE WETTERSTATION BILLIGHEIM-ALLFELD - www.neckar-odenwald-wetter.de - Holger Sonntag